createdAt,value
2017-11-09T00:00:22.361Z,6.12
2017-11-09T00:01:32.545Z,6.17
2017-11-09T00:02:42.989Z,6.14
2017-11-09T00:03:52.415Z,6.14
2017-11-09T00:05:02.582Z,6.09
2017-11-09T00:06:13.275Z,6.03
2017-11-09T00:07:23.747Z,6.08
2017-11-09T00:08:34.207Z,6.03
2017-11-09T00:09:44.397Z,6.09
2017-11-09T00:10:54.941Z,5.91
2017-11-09T00:12:05.423Z,5.96
2017-11-09T00:13:15.937Z,6.01
2017-11-09T00:14:26.404Z,6.08
2017-11-09T00:15:36.531Z,6.06
2017-11-09T00:16:46.650Z,6.08
2017-11-09T00:17:57.321Z,6.03
2017-11-09T00:19:07.777Z,6.06
2017-11-09T00:20:18.279Z,6.12
2017-11-09T00:21:28.733Z,5.99
2017-11-09T00:22:38.936Z,5.96
2017-11-09T00:23:48.742Z,5.96
2017-11-09T00:24:59.186Z,5.93
2017-11-09T00:26:09.675Z,5.9
2017-11-09T00:27:20.421Z,5.91
2017-11-09T00:28:30.887Z,5.91
2017-11-09T00:29:40.742Z,5.79
2017-11-09T00:30:51.512Z,5.88
2017-11-09T00:32:02.000Z,5.75
2017-11-09T00:33:12.180Z,5.77
2017-11-09T00:34:22.694Z,5.88
2017-11-09T00:35:33.178Z,5.84
2017-11-09T00:36:43.586Z,5.83
2017-11-09T00:37:54.049Z,5.72
2017-11-09T00:39:04.506Z,5.86
2017-11-09T00:40:14.224Z,5.93
2017-11-09T00:41:24.373Z,5.8
2017-11-09T00:42:34.088Z,5.79
2017-11-09T00:43:44.563Z,5.9
2017-11-09T00:44:54.734Z,5.9
2017-11-09T00:46:05.275Z,5.9
2017-11-09T00:47:15.741Z,5.9
2017-11-09T00:48:26.273Z,5.9
2017-11-09T00:49:36.721Z,5.88
2017-11-09T00:50:47.226Z,5.88
2017-11-09T00:51:57.702Z,5.91
2017-11-09T00:53:07.851Z,5.96
2017-11-09T00:54:18.349Z,6.03
2017-11-09T00:55:28.792Z,5.99
2017-11-09T00:56:38.589Z,5.99
2017-11-09T00:57:49.045Z,5.9
2017-11-09T00:58:59.203Z,5.94
2017-11-09T01:00:09.062Z,6.01
2017-11-09T01:01:19.733Z,5.98
2017-11-09T01:02:30.248Z,5.99
2017-11-09T01:03:40.423Z,5.99
2017-11-09T01:04:50.696Z,6.01
2017-11-09T01:06:01.252Z,5.96
2017-11-09T01:07:11.703Z,5.91
2017-11-09T01:08:22.309Z,5.96
2017-11-09T01:09:32.776Z,5.86
2017-11-09T01:10:43.225Z,5.93
2017-11-09T01:11:53.679Z,5.82
2017-11-09T01:13:04.178Z,5.84
2017-11-09T01:14:13.894Z,5.79
2017-11-09T01:15:24.366Z,5.77
2017-11-09T01:16:34.567Z,5.86
2017-11-09T01:17:44.589Z,5.75
2017-11-09T01:18:55.028Z,5.88
2017-11-09T01:20:05.148Z,5.79
2017-11-09T01:21:15.408Z,5.9
2017-11-09T01:22:25.919Z,5.88
2017-11-09T01:23:36.408Z,5.91
2017-11-09T01:24:46.866Z,5.8
2017-11-09T01:25:56.344Z,5.84
2017-11-09T01:27:06.880Z,5.9
2017-11-09T01:28:17.436Z,5.94
2017-11-09T01:29:27.892Z,5.86
2017-11-09T01:30:38.366Z,5.9
2017-11-09T01:31:48.518Z,5.94
2017-11-09T01:33:30.783Z,5.88
2017-11-09T01:34:40.753Z,5.94
2017-11-09T01:35:51.230Z,5.91
2017-11-09T01:37:01.779Z,5.96
2017-11-09T01:38:12.262Z,5.86
2017-11-09T01:39:22.386Z,5.83
2017-11-09T01:40:31.803Z,5.82
2017-11-09T01:41:41.954Z,5.77
2017-11-09T01:42:52.407Z,5.83
2017-11-09T01:44:02.518Z,5.79
2017-11-09T01:45:12.981Z,5.8
2017-11-09T01:46:23.422Z,5.8
2017-11-09T01:47:33.553Z,5.72
2017-11-09T01:48:43.731Z,5.84
2017-11-09T01:49:54.196Z,5.79
2017-11-09T01:51:04.372Z,5.84
2017-11-09T01:52:14.865Z,5.67
2017-11-09T01:53:25.321Z,5.83
2017-11-09T01:54:35.783Z,5.75
2017-11-09T01:55:45.968Z,5.84
2017-11-09T01:56:56.425Z,5.83
2017-11-09T01:58:06.565Z,5.84
2017-11-09T01:59:17.044Z,5.88
2017-11-09T02:00:27.219Z,5.84
2017-11-09T02:01:37.672Z,5.75
2017-11-09T02:02:47.806Z,5.91
2017-11-09T02:03:57.812Z,5.77
2017-11-09T02:05:08.328Z,5.77
2017-11-09T02:06:18.770Z,5.93
2017-11-09T02:07:28.922Z,5.74
2017-11-09T02:08:39.392Z,5.82
2017-11-09T02:09:49.532Z,5.82
2017-11-09T02:11:00.431Z,5.8
2017-11-09T02:12:10.384Z,5.79
2017-11-09T02:13:20.531Z,5.8
2017-11-09T02:14:30.982Z,5.8
2017-11-09T02:15:41.482Z,5.72
2017-11-09T02:16:51.746Z,5.72
2017-11-09T02:18:02.209Z,5.75
2017-11-09T02:19:12.867Z,5.72
2017-11-09T02:20:22.970Z,5.68
2017-11-09T02:21:33.105Z,5.84
2017-11-09T02:22:43.549Z,5.77
2017-11-09T02:23:54.004Z,5.79
2017-11-09T02:25:03.688Z,5.75
2017-11-09T02:26:13.918Z,5.88
2017-11-09T02:27:24.386Z,5.93
2017-11-09T02:28:34.124Z,5.93
2017-11-09T02:29:44.232Z,5.9
2017-11-09T02:30:54.351Z,5.75
2017-11-09T02:32:04.865Z,5.91
2017-11-09T02:33:15.318Z,5.96
2017-11-09T02:34:25.456Z,5.93
2017-11-09T02:35:35.630Z,5.9
2017-11-09T02:36:46.173Z,5.93
2017-11-09T02:37:56.650Z,5.94
2017-11-09T02:39:07.104Z,6.02
2017-11-09T02:40:17.558Z,5.99
2017-11-09T02:41:28.103Z,6.01
2017-11-09T02:42:38.538Z,5.94
2017-11-09T02:43:47.585Z,5.98
2017-11-09T02:44:58.063Z,5.99
2017-11-09T02:46:07.906Z,6.03
2017-11-09T02:47:17.697Z,5.99
2017-11-09T02:48:27.835Z,5.98
2017-11-09T02:49:38.466Z,5.98
2017-11-09T02:50:48.957Z,6.06
2017-11-09T02:51:59.327Z,5.94
2017-11-09T02:53:09.451Z,5.98
2017-11-09T02:54:19.892Z,5.96
2017-11-09T02:55:30.251Z,5.98
2017-11-09T02:56:40.485Z,5.99
2017-11-09T02:57:50.967Z,6.02
2017-11-09T02:59:01.245Z,6.08
2017-11-09T03:00:11.777Z,6.12
2017-11-09T03:01:22.230Z,6.02
2017-11-09T03:02:32.678Z,6.01
2017-11-09T03:03:43.111Z,5.98
2017-11-09T03:04:53.250Z,5.96
2017-11-09T03:06:03.378Z,5.93
2017-11-09T03:07:13.892Z,5.98
2017-11-09T03:08:24.132Z,6.02
2017-11-09T03:09:34.370Z,5.94
2017-11-09T03:10:44.847Z,5.99
2017-11-09T03:11:55.330Z,5.99
2017-11-09T03:13:05.828Z,6.06
2017-11-09T03:14:15.969Z,6.06
2017-11-09T03:15:26.700Z,6.08
2017-11-09T03:16:37.371Z,6.05
2017-11-09T03:17:47.822Z,5.96
2017-11-09T03:18:58.061Z,6.05
2017-11-09T03:20:08.499Z,6.12
2017-11-09T03:21:19.047Z,6.03
2017-11-09T03:22:28.754Z,6.08
2017-11-09T03:23:39.218Z,6.05
2017-11-09T03:24:49.409Z,6.03
2017-11-09T03:25:59.884Z,6.03
2017-11-09T03:27:10.443Z,6.08
2017-11-09T03:28:20.973Z,6.08
2017-11-09T03:29:31.168Z,5.99
2017-11-09T03:30:41.656Z,6.01
2017-11-09T03:31:53.116Z,5.94
2017-11-09T03:33:03.602Z,6.02
2017-11-09T03:34:13.745Z,6.05
2017-11-09T03:35:24.216Z,6.05
2017-11-09T03:36:34.156Z,6.05
2017-11-09T03:37:44.270Z,6.01
2017-11-09T03:38:54.365Z,5.99
2017-11-09T03:40:04.533Z,6.03
2017-11-09T03:41:14.659Z,6.05
2017-11-09T03:42:25.120Z,6.01
2017-11-09T03:43:35.242Z,6.02
2017-11-09T03:44:45.369Z,6.06
2017-11-09T03:45:55.901Z,6.05
2017-11-09T03:47:05.621Z,6.12
2017-11-09T03:48:16.125Z,6.16
2017-11-09T03:49:26.298Z,6.12
2017-11-09T03:50:36.438Z,6.06
2017-11-09T03:51:46.630Z,6.17
2017-11-09T03:52:57.094Z,6.09
2017-11-09T03:54:06.909Z,6.05
2017-11-09T03:55:17.165Z,6.06
2017-11-09T03:56:27.646Z,6.06
2017-11-09T03:57:38.145Z,6.05
2017-11-09T03:58:48.626Z,6.08
2017-11-09T03:59:58.747Z,6.05
2017-11-09T04:01:09.467Z,6.16
2017-11-09T04:02:20.304Z,6.14
2017-11-09T04:03:30.766Z,6.09
2017-11-09T04:04:40.862Z,6.16
2017-11-09T04:05:50.889Z,6.19
2017-11-09T04:07:00.675Z,6.16
2017-11-09T04:08:10.817Z,6.14
2017-11-09T04:09:21.252Z,6.17
2017-11-09T04:10:31.937Z,6.19
2017-11-09T04:11:42.382Z,6.14
2017-11-09T04:12:52.858Z,6.09
2017-11-09T04:14:03.304Z,6.06
2017-11-09T04:15:13.867Z,6.17
2017-11-09T04:16:24.421Z,6.06
2017-11-09T04:17:34.532Z,6.12
2017-11-09T04:18:44.333Z,6.14
2017-11-09T04:19:54.344Z,6.14
2017-11-09T04:21:04.850Z,6.14
2017-11-09T04:22:15.001Z,6.2
2017-11-09T04:23:25.212Z,6.16
2017-11-09T04:24:35.010Z,6.21
2017-11-09T04:25:45.466Z,6.21
2017-11-09T04:26:55.969Z,6.19
2017-11-09T04:28:05.697Z,6.14
2017-11-09T04:29:16.133Z,6.16
2017-11-09T04:30:26.853Z,6.16
2017-11-09T04:31:36.882Z,6.06
2017-11-09T04:32:47.031Z,5.98
2017-11-09T04:33:57.500Z,5.99
2017-11-09T04:35:07.849Z,5.91
2017-11-09T04:36:18.021Z,5.96
2017-11-09T04:37:28.622Z,5.86
2017-11-09T04:38:39.202Z,5.94
2017-11-09T04:39:49.447Z,5.98
2017-11-09T04:40:59.891Z,5.98
2017-11-09T04:42:10.463Z,5.98
2017-11-09T04:43:20.925Z,5.99
2017-11-09T04:44:31.366Z,5.93
2017-11-09T04:45:41.824Z,6.09
2017-11-09T04:46:52.027Z,6.05
2017-11-09T04:48:02.177Z,6.06
2017-11-09T04:49:12.741Z,6.06
2017-11-09T04:50:23.192Z,6.08
2017-11-09T04:51:33.748Z,6.12
2017-11-09T04:52:44.238Z,6.16
2017-11-09T04:53:54.959Z,6.05
2017-11-09T04:55:05.074Z,6.05
2017-11-09T04:56:15.585Z,6.05
2017-11-09T04:57:25.706Z,6.12
2017-11-09T04:58:36.166Z,6.12
2017-11-09T04:59:46.330Z,6.17
2017-11-09T05:00:56.557Z,6.14
2017-11-09T05:02:06.683Z,6.06
2017-11-09T05:03:16.732Z,6.08
2017-11-09T05:04:27.394Z,6.03
2017-11-09T05:05:37.909Z,6.06
2017-11-09T05:06:48.414Z,6.03
2017-11-09T05:07:59.079Z,6.09
2017-11-09T05:09:09.463Z,6.05
2017-11-09T05:10:19.956Z,6.09
2017-11-09T05:11:30.220Z,6.05
2017-11-09T05:12:40.682Z,6.02
2017-11-09T05:13:51.153Z,6.06
2017-11-09T05:15:01.622Z,6.11
2017-11-09T05:16:12.085Z,6.06
2017-11-09T05:17:22.271Z,6.08
2017-11-09T05:18:32.755Z,6.16
2017-11-09T05:19:42.974Z,6.05
2017-11-09T05:20:53.080Z,6.17
2017-11-09T05:22:03.535Z,6.12
2017-11-09T05:23:13.969Z,6.14
2017-11-09T05:24:24.408Z,6.08
2017-11-09T05:25:34.905Z,6.09
2017-11-09T05:26:45.068Z,6.14
2017-11-09T05:27:55.216Z,6.16
2017-11-09T05:29:05.677Z,6.14
2017-11-09T05:30:15.092Z,6.16
2017-11-09T05:31:25.247Z,6.16
2017-11-09T05:32:35.694Z,6.27
2017-11-09T05:33:45.843Z,6.17
2017-11-09T05:34:55.967Z,6.17
2017-11-09T05:36:05.739Z,6.17
2017-11-09T05:37:16.472Z,6.06
2017-11-09T05:38:27.026Z,6.06
2017-11-09T05:39:37.366Z,6.06
2017-11-09T05:40:47.491Z,6.09
2017-11-09T05:41:57.637Z,6.08
2017-11-09T05:43:07.439Z,6.02
2017-11-09T05:44:17.785Z,6.01
2017-11-09T05:45:28.279Z,6.05
2017-11-09T05:46:38.820Z,6.01
2017-11-09T05:47:49.278Z,5.96
2017-11-09T05:48:59.460Z,5.96
2017-11-09T05:50:09.909Z,6.03
2017-11-09T05:51:20.360Z,6.05
2017-11-09T05:52:30.880Z,6.11
2017-11-09T05:53:41.009Z,6.05
2017-11-09T05:54:51.504Z,6.12
2017-11-09T05:56:01.977Z,6.05
2017-11-09T05:57:12.511Z,6.17
2017-11-09T05:58:22.961Z,6.08
2017-11-09T05:59:32.996Z,6.11
2017-11-09T06:00:43.470Z,6.16
2017-11-09T06:01:53.583Z,6.2
2017-11-09T06:03:04.084Z,6.17
2017-11-09T06:04:14.575Z,6.19
2017-11-09T06:05:25.035Z,6.11
2017-11-09T06:06:35.722Z,6.16
2017-11-09T06:07:46.169Z,6.14
2017-11-09T06:08:56.632Z,6.17
2017-11-09T06:10:07.083Z,6.17
2017-11-09T06:11:17.214Z,6.19
2017-11-09T06:12:27.392Z,6.16
2017-11-09T06:13:37.908Z,6.12
2017-11-09T06:14:48.406Z,6.24
2017-11-09T06:15:58.252Z,6.27
2017-11-09T06:17:08.721Z,6.31
2017-11-09T06:18:19.198Z,6.36
2017-11-09T06:19:29.247Z,6.26
2017-11-09T06:20:39.700Z,6.28
2017-11-09T06:21:49.528Z,6.3
2017-11-09T06:22:59.650Z,6.27
2017-11-09T06:24:09.477Z,6.34
2017-11-09T06:25:19.920Z,6.36
2017-11-09T06:26:30.074Z,6.31
2017-11-09T06:27:41.178Z,6.35
2017-11-09T06:28:50.859Z,6.34
2017-11-09T06:30:01.345Z,6.27
2017-11-09T06:31:11.834Z,6.3
2017-11-09T06:32:22.331Z,6.28
2017-11-09T06:33:32.774Z,6.24
2017-11-09T06:34:42.580Z,6.21
2017-11-09T06:35:53.998Z,6.2
2017-11-09T06:37:03.776Z,6.19
2017-11-09T06:38:14.264Z,6.19
2017-11-09T06:39:24.382Z,6.17
2017-11-09T06:40:34.516Z,6.16
2017-11-09T06:41:45.002Z,6.14
2017-11-09T06:42:55.119Z,6.19
2017-11-09T06:44:05.318Z,6.08
2017-11-09T06:45:16.020Z,6.06
2017-11-09T06:46:26.037Z,6.05
2017-11-09T06:47:36.084Z,6.06
2017-11-09T06:48:46.197Z,6.08
2017-11-09T06:49:56.657Z,6.03
2017-11-09T06:51:07.133Z,6.05
2017-11-09T06:52:17.599Z,6.11
2017-11-09T06:53:27.729Z,6.08
2017-11-09T06:54:37.839Z,6.02
2017-11-09T06:55:48.293Z,6.05
2017-11-09T06:56:57.999Z,6.08
2017-11-09T06:58:08.504Z,6.12
2017-11-09T06:59:18.644Z,6.02
2017-11-09T07:00:29.135Z,5.96
2017-11-09T07:01:39.714Z,5.99
2017-11-09T07:02:49.995Z,5.88
2017-11-09T07:04:00.535Z,5.9
2017-11-09T07:05:11.033Z,5.9
2017-11-09T07:06:20.878Z,5.93
2017-11-09T07:07:31.364Z,5.93
2017-11-09T07:08:41.504Z,5.9
2017-11-09T07:09:51.669Z,5.9
2017-11-09T07:11:02.144Z,5.8
2017-11-09T07:12:12.624Z,5.79
2017-11-09T07:13:23.072Z,5.77
2017-11-09T07:14:33.538Z,5.82
2017-11-09T07:15:43.988Z,5.72
2017-11-09T07:16:54.519Z,5.96
2017-11-09T07:18:04.645Z,5.75
2017-11-09T07:19:15.156Z,5.88
2017-11-09T07:20:24.956Z,5.77
2017-11-09T07:21:35.065Z,5.8
2017-11-09T07:22:45.527Z,5.9
2017-11-09T07:23:56.211Z,5.77
2017-11-09T07:25:06.678Z,5.77
2017-11-09T07:26:18.171Z,5.79
2017-11-09T07:27:28.104Z,5.74
2017-11-09T07:28:38.224Z,5.84
2017-11-09T07:29:48.806Z,5.72
2017-11-09T07:30:58.933Z,5.86
2017-11-09T07:32:09.086Z,5.8
2017-11-09T07:33:19.527Z,5.8
2017-11-09T07:34:29.663Z,5.68
2017-11-09T07:35:39.697Z,5.84
2017-11-09T07:36:50.145Z,5.8
2017-11-09T07:38:00.692Z,5.75
2017-11-09T07:39:11.142Z,5.84
2017-11-09T07:40:21.585Z,5.86
2017-11-09T07:41:31.343Z,5.75
2017-11-09T07:42:41.161Z,5.74
2017-11-09T07:43:51.617Z,5.9
2017-11-09T07:45:01.760Z,5.88
2017-11-09T07:46:11.911Z,5.77
2017-11-09T07:47:22.359Z,5.8
2017-11-09T07:48:32.819Z,5.79
2017-11-09T07:49:43.299Z,5.8
2017-11-09T07:50:53.759Z,5.9
2017-11-09T07:52:04.227Z,5.88
2017-11-09T07:53:15.059Z,5.93
2017-11-09T07:54:25.507Z,5.75
2017-11-09T07:55:36.090Z,5.68
2017-11-09T07:56:46.537Z,5.71
2017-11-09T07:57:57.084Z,5.75
2017-11-09T07:59:07.240Z,5.74
2017-11-09T08:00:17.706Z,5.67
2017-11-09T08:01:28.207Z,5.82
2017-11-09T08:02:38.678Z,5.79
2017-11-09T08:03:48.897Z,5.86
2017-11-09T08:04:59.394Z,5.8
2017-11-09T08:06:09.857Z,5.9
2017-11-09T08:07:19.688Z,5.79
2017-11-09T08:08:29.954Z,5.8
2017-11-09T08:09:40.441Z,5.88
2017-11-09T08:10:50.564Z,5.83
2017-11-09T08:12:01.087Z,5.83
2017-11-09T08:13:11.641Z,5.68
2017-11-09T08:14:22.086Z,5.74
2017-11-09T08:15:32.136Z,5.71
2017-11-09T08:16:42.304Z,5.67
2017-11-09T08:17:52.807Z,5.68
2017-11-09T08:19:03.290Z,5.69
2017-11-09T08:20:13.746Z,5.72
2017-11-09T08:21:23.911Z,5.69
2017-11-09T08:22:34.053Z,5.58
2017-11-09T08:23:44.520Z,5.53
2017-11-09T08:24:54.669Z,5.59
2017-11-09T08:26:04.859Z,5.59
2017-11-09T08:27:15.445Z,5.59
2017-11-09T08:28:25.924Z,5.59
2017-11-09T08:29:36.414Z,5.54
2017-11-09T08:30:46.879Z,5.56
2017-11-09T08:31:57.358Z,5.58
2017-11-09T08:33:07.182Z,5.53
2017-11-09T08:34:17.679Z,5.54
2017-11-09T08:35:28.148Z,5.49
2017-11-09T08:36:38.693Z,5.58
2017-11-09T08:37:49.331Z,5.49
2017-11-09T08:38:59.800Z,5.56
2017-11-09T08:40:10.360Z,5.51
2017-11-09T08:41:20.822Z,5.59
2017-11-09T08:42:31.340Z,5.56
2017-11-09T08:43:41.511Z,5.44
2017-11-09T08:44:51.976Z,5.54
2017-11-09T08:46:02.505Z,5.46
2017-11-09T08:47:12.540Z,5.49
2017-11-09T08:48:22.996Z,5.38
2017-11-09T08:49:33.057Z,5.43
2017-11-09T08:50:43.755Z,5.33
2017-11-09T08:51:54.223Z,5.29
2017-11-09T08:53:04.023Z,5.35
2017-11-09T08:54:14.488Z,5.32
2017-11-09T08:55:24.268Z,5.26
2017-11-09T08:56:34.727Z,5.31
2017-11-09T08:57:45.209Z,5.33
2017-11-09T08:58:55.271Z,5.24
2017-11-09T09:00:05.437Z,5.28
2017-11-09T09:01:15.915Z,5.29
2017-11-09T09:02:26.368Z,5.29
2017-11-09T09:03:36.869Z,5.28
2017-11-09T09:04:47.120Z,5.35
2017-11-09T09:05:57.150Z,5.31
2017-11-09T09:07:07.273Z,5.35
2017-11-09T09:08:17.724Z,5.29
2017-11-09T09:09:27.867Z,5.32
2017-11-09T09:10:38.106Z,5.33
2017-11-09T09:11:48.597Z,5.29
2017-11-09T09:12:58.736Z,5.26
2017-11-09T09:14:09.195Z,5.22
2017-11-09T09:15:19.669Z,5.29
2017-11-09T09:16:29.611Z,5.29
2017-11-09T09:17:39.729Z,5.33
2017-11-09T09:18:49.537Z,5.33
2017-11-09T09:19:59.724Z,5.29
2017-11-09T09:21:10.252Z,5.43
2017-11-09T09:22:20.855Z,5.38
2017-11-09T09:23:31.368Z,5.41
2017-11-09T09:24:41.811Z,5.54
2017-11-09T09:25:52.265Z,5.61
2017-11-09T09:27:02.398Z,5.56
2017-11-09T09:28:12.211Z,5.65
2017-11-09T09:29:22.287Z,5.71
2017-11-09T09:30:32.444Z,5.64
2017-11-09T09:31:42.574Z,5.62
2017-11-09T09:32:52.706Z,5.67
2017-11-09T09:34:02.816Z,5.68
2017-11-09T09:35:12.963Z,5.68
2017-11-09T09:36:23.493Z,5.64
2017-11-09T09:37:33.322Z,5.65
2017-11-09T09:38:43.824Z,5.69
2017-11-09T09:39:54.333Z,5.64
2017-11-09T09:41:04.137Z,5.69
2017-11-09T09:42:14.600Z,5.58
2017-11-09T09:43:25.058Z,5.58
2017-11-09T09:44:35.580Z,5.62
2017-11-09T09:45:46.040Z,5.59
2017-11-09T09:46:56.167Z,5.67
2017-11-09T09:48:06.301Z,5.67
2017-11-09T09:49:16.823Z,5.71
2017-11-09T09:50:26.995Z,5.67
2017-11-09T09:51:37.481Z,5.75
2017-11-09T09:52:47.978Z,5.68
2017-11-09T09:53:58.427Z,5.71
2017-11-09T09:55:08.983Z,5.74
2017-11-09T09:56:19.532Z,5.79
2017-11-09T09:57:30.018Z,5.72
2017-11-09T09:58:39.829Z,5.68
2017-11-09T09:59:49.948Z,5.59
2017-11-09T10:01:00.527Z,5.54
2017-11-09T10:02:10.445Z,5.64
2017-11-09T10:03:20.920Z,5.56
2017-11-09T10:04:31.148Z,5.54
2017-11-09T10:05:41.836Z,5.46
2017-11-09T10:06:52.282Z,5.46
2017-11-09T10:08:02.791Z,5.46
2017-11-09T10:09:12.938Z,5.4
2017-11-09T10:10:23.117Z,5.36
2017-11-09T10:11:32.800Z,5.28
2017-11-09T10:12:42.532Z,5.29
2017-11-09T10:13:53.081Z,5.36
2017-11-09T10:15:03.611Z,5.44
2017-11-09T10:16:13.903Z,5.43
2017-11-09T10:17:24.359Z,5.44
2017-11-09T10:18:34.908Z,5.49
2017-11-09T10:19:45.045Z,5.58
2017-11-09T10:20:55.524Z,5.56
2017-11-09T10:22:05.661Z,5.56
2017-11-09T10:23:16.184Z,5.59
2017-11-09T10:24:26.632Z,5.67
2017-11-09T10:25:36.800Z,5.54
2017-11-09T10:26:46.946Z,5.54
2017-11-09T10:27:56.664Z,5.62
2017-11-09T10:29:06.801Z,5.56
2017-11-09T10:30:16.502Z,5.62
2017-11-09T10:31:26.544Z,5.58
2017-11-09T10:32:37.106Z,5.71
2017-11-09T10:33:47.579Z,5.71
2017-11-09T10:34:58.034Z,5.72
2017-11-09T10:36:08.536Z,5.83
2017-11-09T10:37:19.014Z,5.88
2017-11-09T10:38:29.601Z,5.8
2017-11-09T10:39:39.434Z,5.86
2017-11-09T10:40:49.960Z,5.9
2017-11-09T10:42:00.173Z,5.91
2017-11-09T10:43:09.985Z,5.94
2017-11-09T10:44:20.128Z,5.98
2017-11-09T10:45:30.581Z,5.98
2017-11-09T10:46:41.342Z,5.9
2017-11-09T10:47:52.055Z,5.86
2017-11-09T10:49:02.583Z,5.9
2017-11-09T10:50:12.599Z,6.01
2017-11-09T10:51:22.391Z,5.88
2017-11-09T10:52:32.838Z,6.03
2017-11-09T10:53:43.305Z,6.01
2017-11-09T10:54:53.850Z,5.98
2017-11-09T10:56:04.320Z,5.99
2017-11-09T10:57:14.795Z,6.06
2017-11-09T10:58:25.343Z,6.02
2017-11-09T10:59:35.483Z,6.08
2017-11-09T11:00:46.015Z,6.08
2017-11-09T11:01:56.465Z,6.08
2017-11-09T11:03:06.622Z,6.08
2017-11-09T11:04:17.227Z,6.05
2017-11-09T11:05:27.756Z,6.06
2017-11-09T11:06:37.842Z,6.05
2017-11-09T11:07:48.047Z,6.03
2017-11-09T11:08:58.505Z,6.05
2017-11-09T11:10:09.298Z,5.91
2017-11-09T11:11:19.797Z,5.88
2017-11-09T11:12:30.300Z,5.9
2017-11-09T11:13:40.455Z,6.03
2017-11-09T11:14:49.866Z,6.02
2017-11-09T11:16:00.331Z,5.99
2017-11-09T11:17:10.900Z,6.01
2017-11-09T11:18:21.022Z,6.09
2017-11-09T11:19:30.836Z,6.09
2017-11-09T11:20:41.787Z,6.09
2017-11-09T11:21:50.731Z,6.03
2017-11-09T11:23:00.550Z,6.09
2017-11-09T11:24:10.666Z,6.16
2017-11-09T11:25:21.144Z,6.19
2017-11-09T11:26:31.262Z,6.17
2017-11-09T11:27:41.397Z,6.27
2017-11-09T11:28:50.897Z,6.31
2017-11-09T11:30:01.389Z,6.31
2017-11-09T11:31:11.961Z,6.3
2017-11-09T11:32:22.450Z,6.39
2017-11-09T11:33:32.607Z,6.42
2017-11-09T11:34:43.193Z,6.48
2017-11-09T11:35:53.086Z,6.53
2017-11-09T11:37:03.153Z,6.54
2017-11-09T11:38:13.646Z,6.53
2017-11-09T11:39:24.115Z,6.62
2017-11-09T11:40:34.589Z,6.79
2017-11-09T11:41:45.067Z,6.85
2017-11-09T11:42:55.617Z,6.79
2017-11-09T11:44:06.122Z,6.89
2017-11-09T11:45:16.251Z,6.96
2017-11-09T11:46:26.978Z,6.93
2017-11-09T11:47:37.109Z,6.97
2017-11-09T11:48:47.663Z,7.06
2017-11-09T11:49:58.141Z,7.11
2017-11-09T11:51:08.502Z,7.11
2017-11-09T11:52:18.951Z,7.15
2017-11-09T11:53:29.426Z,7.06
2017-11-09T11:54:40.125Z,7.03
2017-11-09T11:55:49.974Z,7.18
2017-11-09T11:57:00.438Z,7.26
2017-11-09T11:58:10.569Z,7.33
2017-11-09T11:59:21.039Z,7.29
2017-11-09T12:00:31.261Z,7.29
2017-11-09T12:01:41.469Z,7.37
2017-11-09T12:02:51.973Z,7.29
2017-11-09T12:04:02.421Z,7.21
2017-11-09T12:05:13.016Z,7.22
2017-11-09T12:06:23.500Z,7.33
2017-11-09T12:07:34.092Z,7.22
2017-11-09T12:08:44.588Z,7.2
2017-11-09T12:09:55.063Z,7.2
2017-11-09T12:11:05.097Z,7.2
2017-11-09T12:12:15.576Z,7.21
2017-11-09T12:13:25.699Z,7.1
2017-11-09T12:14:35.560Z,7.21
2017-11-09T12:15:45.279Z,7.1
2017-11-09T12:16:55.095Z,7.13
2017-11-09T12:18:05.223Z,7.2
2017-11-09T12:19:15.716Z,7.24
2017-11-09T12:20:26.227Z,7.21
2017-11-09T12:21:36.701Z,7.37
2017-11-09T12:22:46.898Z,7.51
2017-11-09T12:23:57.400Z,7.52
2017-11-09T12:25:07.931Z,7.52
2017-11-09T12:26:18.075Z,7.66
2017-11-09T12:27:28.112Z,7.59
2017-11-09T12:28:39.011Z,7.7
2017-11-09T12:29:49.224Z,7.72
2017-11-09T12:30:59.709Z,7.7
2017-11-09T12:32:10.200Z,7.73
2017-11-09T12:33:20.714Z,7.7
2017-11-09T12:34:30.411Z,7.7
2017-11-09T12:35:40.245Z,7.7
2017-11-09T12:36:50.953Z,7.82
2017-11-09T12:38:01.478Z,7.73
2017-11-09T12:39:11.613Z,7.76
2017-11-09T12:40:22.068Z,7.8
2017-11-09T12:41:33.197Z,7.76
2017-11-09T12:42:43.352Z,7.82
2017-11-09T12:43:53.057Z,7.82
2017-11-09T12:45:03.543Z,7.84
2017-11-09T12:46:13.968Z,7.87
2017-11-09T12:47:24.125Z,7.76
2017-11-09T12:48:34.287Z,7.8
2017-11-09T12:49:44.773Z,7.82
2017-11-09T12:50:54.910Z,7.77
2017-11-09T12:52:04.714Z,7.79
2017-11-09T12:53:14.894Z,7.76
2017-11-09T12:54:25.345Z,7.76
2017-11-09T12:55:35.503Z,7.7
2017-11-09T12:56:46.166Z,7.77
2017-11-09T12:57:56.314Z,7.82
2017-11-09T12:59:06.763Z,7.76
2017-11-09T13:00:17.286Z,7.76
2017-11-09T13:01:27.778Z,7.74
2017-11-09T13:02:38.342Z,7.79
2017-11-09T13:03:48.475Z,7.76
2017-11-09T13:04:58.662Z,7.79
2017-11-09T13:06:08.767Z,7.76
2017-11-09T13:07:19.257Z,7.82
2017-11-09T13:08:29.850Z,7.79
2017-11-09T13:09:39.895Z,7.8
2017-11-09T13:10:50.363Z,7.85
2017-11-09T13:12:00.816Z,7.82
2017-11-09T13:13:10.967Z,7.84
2017-11-09T13:14:21.409Z,7.84
2017-11-09T13:15:31.915Z,7.9
2017-11-09T13:16:41.631Z,7.85
2017-11-09T13:17:52.095Z,7.84
2017-11-09T13:19:02.588Z,7.85
2017-11-09T13:20:13.049Z,7.77
2017-11-09T13:21:23.127Z,7.92
2017-11-09T13:22:33.263Z,7.82
2017-11-09T13:23:43.711Z,7.9
2017-11-09T13:24:53.859Z,7.87
2017-11-09T13:26:03.900Z,7.92
2017-11-09T13:27:14.039Z,7.88
2017-11-09T13:28:23.757Z,7.88
2017-11-09T13:29:33.881Z,7.8
2017-11-09T13:30:44.310Z,7.87
2017-11-09T13:31:54.814Z,7.87
2017-11-09T13:33:05.078Z,7.88
2017-11-09T13:34:15.664Z,7.85
2017-11-09T13:35:26.176Z,7.77
2017-11-09T13:36:36.622Z,7.77
2017-11-09T13:37:47.253Z,7.76
2017-11-09T13:38:57.718Z,7.79
2017-11-09T13:40:08.303Z,7.77
2017-11-09T13:41:18.434Z,7.76
2017-11-09T13:42:28.894Z,7.8
2017-11-09T13:43:38.721Z,7.74
2017-11-09T13:44:49.189Z,7.73
2017-11-09T13:45:59.664Z,7.77
2017-11-09T13:47:09.879Z,7.8
2017-11-09T13:48:20.359Z,7.79
2017-11-09T13:49:31.046Z,7.77
2017-11-09T13:50:41.515Z,7.8
2017-11-09T13:51:51.706Z,7.77
2017-11-09T13:53:02.179Z,7.72
2017-11-09T13:54:12.671Z,7.82
2017-11-09T13:55:22.778Z,7.88
2017-11-09T13:56:33.240Z,7.8
2017-11-09T13:57:43.806Z,7.73
2017-11-09T13:58:54.258Z,7.76
2017-11-09T14:00:03.958Z,7.76
2017-11-09T14:01:14.526Z,7.77
2017-11-09T14:02:24.783Z,7.85
2017-11-09T14:03:34.950Z,7.79
2017-11-09T14:04:45.453Z,7.82
2017-11-09T14:05:56.043Z,7.77
2017-11-09T14:07:06.830Z,7.82
2017-11-09T14:08:17.324Z,7.77
2017-11-09T14:09:27.480Z,7.79
2017-11-09T14:10:38.262Z,7.79
2017-11-09T14:11:48.438Z,7.8
2017-11-09T14:12:58.494Z,7.79
2017-11-09T14:14:08.556Z,7.88
2017-11-09T14:15:19.032Z,7.8
2017-11-09T14:16:29.532Z,7.77
2017-11-09T14:17:40.026Z,7.7
2017-11-09T14:18:50.487Z,7.79
2017-11-09T14:20:01.161Z,7.8
2017-11-09T14:21:11.629Z,7.77
2017-11-09T14:22:21.807Z,7.76
2017-11-09T14:23:31.997Z,7.7
2017-11-09T14:24:42.142Z,7.76
2017-11-09T14:25:52.207Z,7.7
2017-11-09T14:27:02.729Z,7.73
2017-11-09T14:28:12.884Z,7.72
2017-11-09T14:29:23.399Z,7.67
2017-11-09T14:30:32.781Z,7.7
2017-11-09T14:31:43.381Z,7.76
2017-11-09T14:32:53.839Z,7.67
2017-11-09T14:34:04.337Z,7.67
2017-11-09T14:35:14.887Z,7.72
2017-11-09T14:36:25.378Z,7.77
2017-11-09T14:37:35.928Z,7.72
2017-11-09T14:38:46.190Z,7.76
2017-11-09T14:39:56.890Z,7.76
2017-11-09T14:41:07.646Z,7.62
2017-11-09T14:42:18.132Z,7.72
2017-11-09T14:43:28.327Z,7.69
2017-11-09T14:44:39.041Z,7.61
2017-11-09T14:45:49.522Z,7.64
2017-11-09T14:46:59.726Z,7.59
2017-11-09T14:48:10.199Z,7.59
2017-11-09T14:49:20.671Z,7.56
2017-11-09T14:50:30.808Z,7.52
2017-11-09T14:51:40.726Z,7.58
2017-11-09T14:52:50.890Z,7.56
2017-11-09T14:54:01.134Z,7.56
2017-11-09T14:55:11.651Z,7.56
2017-11-09T14:56:22.334Z,7.56
2017-11-09T14:57:32.270Z,7.55
2017-11-09T14:58:42.413Z,7.54
2017-11-09T14:59:52.551Z,7.59
2017-11-09T15:01:02.781Z,7.52
2017-11-09T15:02:13.027Z,7.55
2017-11-09T15:03:23.471Z,7.61
2017-11-09T15:04:34.295Z,7.56
2017-11-09T15:05:44.399Z,7.61
2017-11-09T15:06:54.882Z,7.64
2017-11-09T15:08:05.022Z,7.55
2017-11-09T15:09:15.473Z,7.62
2017-11-09T15:10:26.021Z,7.64
2017-11-09T15:11:36.508Z,7.59
2017-11-09T15:12:46.662Z,7.56
2017-11-09T15:13:57.105Z,7.54
2017-11-09T15:15:07.570Z,7.43
2017-11-09T15:16:18.108Z,7.44
2017-11-09T15:17:28.585Z,7.47
2017-11-09T15:18:39.067Z,7.43
2017-11-09T15:19:49.510Z,7.41
2017-11-09T15:21:00.124Z,7.47
2017-11-09T15:22:09.871Z,7.4
2017-11-09T15:23:20.449Z,7.39
2017-11-09T15:24:30.951Z,7.43
2017-11-09T15:25:41.434Z,7.44
2017-11-09T15:26:51.919Z,7.36
2017-11-09T15:28:02.427Z,7.4
2017-11-09T15:29:12.692Z,7.43
2017-11-09T15:30:23.233Z,7.33
2017-11-09T15:31:33.725Z,7.43
2017-11-09T15:32:44.271Z,7.37
2017-11-09T15:33:54.806Z,7.34
2017-11-09T15:35:05.266Z,7.39
2017-11-09T15:36:15.521Z,7.37
2017-11-09T15:37:25.591Z,7.41
2017-11-09T15:38:35.725Z,7.39
2017-11-09T15:39:45.849Z,7.28